sensor_id;sensor_type;location;lat;lon;timestamp;pressure;altitude;pressure_sealevel;temperature;humidity
49841;BME280;35738;49.890;5.930;2023-01-15T00:01:50;94349.97;;;3.95;100.00
49841;BME280;35738;49.890;5.930;2023-01-15T00:04:17;94341.31;;;3.93;100.00
49841;BME280;35738;49.890;5.930;2023-01-15T00:06:44;94332.97;;;4.07;100.00
49841;BME280;35738;49.890;5.930;2023-01-15T00:09:14;94331.22;;;4.02;100.00
49841;BME280;35738;49.890;5.930;2023-01-15T00:11:42;94336.28;;;4.12;100.00
49841;BME280;35738;49.890;5.930;2023-01-15T00:14:09;94332.50;;;3.96;100.00
49841;BME280;35738;49.890;5.930;2023-01-15T00:16:35;94333.63;;;3.95;100.00
49841;BME280;35738;49.890;5.930;2023-01-15T00:19:02;94331.34;;;4.06;100.00
49841;BME280;35738;49.890;5.930;2023-01-15T00:21:30;94335.22;;;3.96;100.00
49841;BME280;35738;49.890;5.930;2023-01-15T00:23:56;94339.66;;;4.09;100.00
49841;BME280;35738;49.890;5.930;2023-01-15T00:26:42;94337.84;;;3.84;100.00
49841;BME280;35738;49.890;5.930;2023-01-15T00:29:28;94335.91;;;3.85;100.00
49841;BME280;35738;49.890;5.930;2023-01-15T00:34:25;94332.50;;;3.96;100.00
49841;BME280;35738;49.890;5.930;2023-01-15T00:36:52;94329.03;;;3.70;100.00
49841;BME280;35738;49.890;5.930;2023-01-15T00:39:19;94337.06;;;3.58;100.00
49841;BME280;35738;49.890;5.930;2023-01-15T00:41:46;94332.75;;;3.57;100.00
49841;BME280;35738;49.890;5.930;2023-01-15T00:44:13;94341.06;;;3.51;100.00
49841;BME280;35738;49.890;5.930;2023-01-15T00:46:39;94341.56;;;3.54;100.00
49841;BME280;35738;49.890;5.930;2023-01-15T00:49:06;94338.34;;;3.51;100.00
49841;BME280;35738;49.890;5.930;2023-01-15T00:51:33;94347.63;;;3.59;100.00
49841;BME280;35738;49.890;5.930;2023-01-15T00:54:00;94352.59;;;3.48;100.00
49841;BME280;35738;49.890;5.930;2023-01-15T00:56:27;94347.94;;;3.58;100.00
49841;BME280;35738;49.890;5.930;2023-01-15T00:58:53;94356.41;;;3.65;100.00
49841;BME280;35738;49.890;5.930;2023-01-15T01:01:20;94357.19;;;3.65;100.00
49841;BME280;35738;49.890;5.930;2023-01-15T01:03:47;94357.88;;;3.54;100.00
49841;BME280;35738;49.890;5.930;2023-01-15T01:06:15;94376.06;;;3.62;100.00
49841;BME280;35738;49.890;5.930;2023-01-15T01:08:43;94366.81;;;3.45;100.00
49841;BME280;35738;49.890;5.930;2023-01-15T01:11:14;94362.50;;;3.53;100.00
49841;BME280;35738;49.890;5.930;2023-01-15T01:13:42;94364.91;;;3.55;100.00
49841;BME280;35738;49.890;5.930;2023-01-15T01:16:38;94358.84;;;3.40;100.00
49841;BME280;35738;49.890;5.930;2023-01-15T01:19:10;94343.34;;;3.15;100.00
49841;BME280;35738;49.890;5.930;2023-01-15T01:21:41;94343.66;;;3.39;100.00
49841;BME280;35738;49.890;5.930;2023-01-15T01:24:14;94343.66;;;3.22;100.00
49841;BME280;35738;49.890;5.930;2023-01-15T01:26:42;94348.13;;;3.27;100.00
49841;BME280;35738;49.890;5.930;2023-01-15T01:29:13;94356.44;;;3.04;100.00
49841;BME280;35738;49.890;5.930;2023-01-15T01:31:40;94357.56;;;3.03;100.00
49841;BME280;35738;49.890;5.930;2023-01-15T01:34:08;94359.34;;;3.08;100.00
49841;BME280;35738;49.890;5.930;2023-01-15T01:36:37;94346.88;;;2.98;100.00
49841;BME280;35738;49.890;5.930;2023-01-15T01:39:05;94355.47;;;2.92;100.00
49841;BME280;35738;49.890;5.930;2023-01-15T01:41:33;94356.88;;;2.89;100.00
49841;BME280;35738;49.890;5.930;2023-01-15T01:44:57;94358.00;;;2.88;100.00
49841;BME280;35738;49.890;5.930;2023-01-15T01:46:54;94362.50;;;2.93;100.00
49841;BME280;35738;49.890;5.930;2023-01-15T01:49:20;94363.44;;;2.97;100.00
49841;BME280;35738;49.890;5.930;2023-01-15T01:52:00;94374.19;;;3.10;100.00
49841;BME280;35738;49.890;5.930;2023-01-15T01:54:30;94381.84;;;3.00;100.00
49841;BME280;35738;49.890;5.930;2023-01-15T01:56:58;94386.81;;;2.98;100.00
49841;BME280;35738;49.890;5.930;2023-01-15T01:59:25;94399.75;;;3.01;100.00
49841;BME280;35738;49.890;5.930;2023-01-15T02:01:52;94391.91;;;2.99;100.00
49841;BME280;35738;49.890;5.930;2023-01-15T02:04:21;94396.22;;;3.00;100.00
49841;BME280;35738;49.890;5.930;2023-01-15T02:06:50;94390.81;;;3.09;100.00
49841;BME280;35738;49.890;5.930;2023-01-15T02:09:17;94387.28;;;3.17;100.00
49841;BME280;35738;49.890;5.930;2023-01-15T02:11:44;94383.47;;;3.09;100.00
49841;BME280;35738;49.890;5.930;2023-01-15T02:17:13;94388.41;;;3.07;100.00
49841;BME280;35738;49.890;5.930;2023-01-15T02:19:47;94387.75;;;3.02;100.00
49841;BME280;35738;49.890;5.930;2023-01-15T02:27:54;94394.09;;;2.88;100.00
49841;BME280;35738;49.890;5.930;2023-01-15T02:30:29;94388.16;;;2.69;100.00
49841;BME280;35738;49.890;5.930;2023-01-15T02:33:07;94390.91;;;2.86;100.00
49841;BME280;35738;49.890;5.930;2023-01-15T02:35:50;94375.25;;;2.83;100.00
49841;BME280;35738;49.890;5.930;2023-01-15T02:38:20;94381.31;;;2.80;100.00
49841;BME280;35738;49.890;5.930;2023-01-15T02:40:49;94365.34;;;2.70;100.00
49841;BME280;35738;49.890;5.930;2023-01-15T02:43:18;94373.00;;;2.68;100.00
49841;BME280;35738;49.890;5.930;2023-01-15T02:45:48;94378.44;;;2.85;100.00
49841;BME280;35738;49.890;5.930;2023-01-15T02:48:17;94365.97;;;2.76;100.00
49841;BME280;35738;49.890;5.930;2023-01-15T02:50:54;94374.88;;;2.59;100.00
49841;BME280;35738;49.890;5.930;2023-01-15T02:53:24;94372.03;;;2.64;100.00
49841;BME280;35738;49.890;5.930;2023-01-15T02:55:56;94389.28;;;2.68;100.00
49841;BME280;35738;49.890;5.930;2023-01-15T02:58:28;94383.03;;;2.59;100.00
49841;BME280;35738;49.890;5.930;2023-01-15T03:01:01;94386.72;;;2.63;100.00
49841;BME280;35738;49.890;5.930;2023-01-15T03:06:07;94398.50;;;2.50;100.00
49841;BME280;35738;49.890;5.930;2023-01-15T03:08:36;94399.63;;;2.58;100.00
49841;BME280;35738;49.890;5.930;2023-01-15T03:11:10;94407.59;;;2.54;100.00
49841;BME280;35738;49.890;5.930;2023-01-15T03:16:30;94398.19;;;2.51;100.00
49841;BME280;35738;49.890;5.930;2023-01-15T03:24:51;94412.03;;;2.41;100.00
49841;BME280;35738;49.890;5.930;2023-01-15T03:27:20;94417.06;;;2.26;100.00
49841;BME280;35738;49.890;5.930;2023-01-15T03:29:51;94402.13;;;2.37;100.00
49841;BME280;35738;49.890;5.930;2023-01-15T03:32:20;94401.63;;;2.35;100.00
49841;BME280;35738;49.890;5.930;2023-01-15T03:34:54;94403.88;;;2.41;100.00
49841;BME280;35738;49.890;5.930;2023-01-15T03:37:24;94405.75;;;2.23;100.00
49841;BME280;35738;49.890;5.930;2023-01-15T03:39:53;94403.84;;;2.33;100.00
49841;BME280;35738;49.890;5.930;2023-01-15T03:42:40;94406.16;;;2.17;100.00
49841;BME280;35738;49.890;5.930;2023-01-15T03:48:01;94420.16;;;2.10;100.00
49841;BME280;35738;49.890;5.930;2023-01-15T03:50:39;94422.78;;;1.93;100.00
49841;BME280;35738;49.890;5.930;2023-01-15T03:53:13;94404.38;;;1.81;100.00
49841;BME280;35738;49.890;5.930;2023-01-15T03:55:48;94401.00;;;1.76;100.00
49841;BME280;35738;49.890;5.930;2023-01-15T04:01:02;94404.66;;;1.71;100.00
49841;BME280;35738;49.890;5.930;2023-01-15T04:03:31;94406.44;;;1.76;100.00
49841;BME280;35738;49.890;5.930;2023-01-15T04:06:00;94401.97;;;1.80;100.00
49841;BME280;35738;49.890;5.930;2023-01-15T04:08:31;94402.97;;;1.84;100.00
49841;BME280;35738;49.890;5.930;2023-01-15T04:11:00;94411.94;;;1.93;100.00
49841;BME280;35738;49.890;5.930;2023-01-15T04:13:28;94404.91;;;1.92;100.00
49841;BME280;35738;49.890;5.930;2023-01-15T04:15:57;94415.19;;;1.73;100.00
49841;BME280;35738;49.890;5.930;2023-01-15T04:18:23;94419.34;;;1.79;100.00
49841;BME280;35738;49.890;5.930;2023-01-15T04:20:50;94425.28;;;1.81;100.00
49841;BME280;35738;49.890;5.930;2023-01-15T04:23:17;94416.47;;;2.06;100.00
49841;BME280;35738;49.890;5.930;2023-01-15T04:25:43;94400.00;;;1.94;100.00
49841;BME280;35738;49.890;5.930;2023-01-15T04:28:10;94406.16;;;1.86;100.00
49841;BME280;35738;49.890;5.930;2023-01-15T04:30:38;94410.13;;;1.80;100.00
49841;BME280;35738;49.890;5.930;2023-01-15T04:33:05;94401.63;;;1.73;100.00
49841;BME280;35738;49.890;5.930;2023-01-15T04:35:31;94401.75;;;1.68;100.00
49841;BME280;35738;49.890;5.930;2023-01-15T04:37:59;94405.94;;;1.74;100.00
49841;BME280;35738;49.890;5.930;2023-01-15T04:40:26;94412.66;;;1.76;100.00
49841;BME280;35738;49.890;5.930;2023-01-15T04:43:12;94418.44;;;1.83;100.00
49841;BME280;35738;49.890;5.930;2023-01-15T04:45:58;94431.38;;;1.86;100.00
49841;BME280;35738;49.890;5.930;2023-01-15T04:48:25;94415.91;;;1.65;100.00
49841;BME280;35738;49.890;5.930;2023-01-15T04:50:53;94426.00;;;1.73;100.00
49841;BME280;35738;49.890;5.930;2023-01-15T04:53:20;94422.94;;;1.66;100.00
49841;BME280;35738;49.890;5.930;2023-01-15T04:55:47;94426.13;;;1.68;100.00
49841;BME280;35738;49.890;5.930;2023-01-15T04:58:13;94419.47;;;1.74;100.00
49841;BME280;35738;49.890;5.930;2023-01-15T05:00:40;94410.31;;;1.61;100.00
49841;BME280;35738;49.890;5.930;2023-01-15T05:03:06;94383.66;;;1.54;100.00
49841;BME280;35738;49.890;5.930;2023-01-15T05:05:33;94401.50;;;1.55;100.00
49841;BME280;35738;49.890;5.930;2023-01-15T05:08:00;94407.44;;;1.57;100.00
49841;BME280;35738;49.890;5.930;2023-01-15T05:10:26;94413.78;;;1.53;100.00
49841;BME280;35738;49.890;5.930;2023-01-15T05:12:53;94392.91;;;1.53;100.00
49841;BME280;35738;49.890;5.930;2023-01-15T05:15:20;94399.84;;;1.68;100.00
49841;BME280;35738;49.890;5.930;2023-01-15T05:17:46;94402.31;;;1.56;100.00
49841;BME280;35738;49.890;5.930;2023-01-15T05:20:13;94387.84;;;1.61;100.00
49841;BME280;35738;49.890;5.930;2023-01-15T05:22:40;94418.94;;;1.63;100.00
49841;BME280;35738;49.890;5.930;2023-01-15T05:25:07;94415.44;;;1.63;100.00
49841;BME280;35738;49.890;5.930;2023-01-15T05:27:34;94410.25;;;1.52;100.00
49841;BME280;35738;49.890;5.930;2023-01-15T05:30:00;94402.94;;;1.53;100.00
49841;BME280;35738;49.890;5.930;2023-01-15T05:32:29;94407.97;;;1.68;100.00
49841;BME280;35738;49.890;5.930;2023-01-15T05:34:55;94405.69;;;1.62;100.00
49841;BME280;35738;49.890;5.930;2023-01-15T05:37:22;94423.94;;;1.70;100.00
49841;BME280;35738;49.890;5.930;2023-01-15T05:39:49;94419.13;;;1.67;100.00
49841;BME280;35738;49.890;5.930;2023-01-15T05:42:16;94413.69;;;1.67;100.00
49841;BME280;35738;49.890;5.930;2023-01-15T05:44:42;94411.59;;;1.64;100.00
49841;BME280;35738;49.890;5.930;2023-01-15T05:47:09;94424.16;;;1.82;100.00
49841;BME280;35738;49.890;5.930;2023-01-15T05:49:36;94425.22;;;1.72;100.00
49841;BME280;35738;49.890;5.930;2023-01-15T05:52:03;94422.00;;;1.70;100.00
49841;BME280;35738;49.890;5.930;2023-01-15T05:54:31;94412.47;;;1.73;100.00
49841;BME280;35738;49.890;5.930;2023-01-15T05:56:59;94416.91;;;1.69;100.00
49841;BME280;35738;49.890;5.930;2023-01-15T05:59:28;94424.66;;;1.84;100.00
49841;BME280;35738;49.890;5.930;2023-01-15T06:01:55;94432.28;;;1.82;100.00
49841;BME280;35738;49.890;5.930;2023-01-15T06:04:23;94430.06;;;1.84;100.00
49841;BME280;35738;49.890;5.930;2023-01-15T06:06:52;94429.63;;;1.90;100.00
49841;BME280;35738;49.890;5.930;2023-01-15T06:09:19;94429.44;;;1.87;100.00
49841;BME280;35738;49.890;5.930;2023-01-15T06:11:48;94437.72;;;1.82;100.00
49841;BME280;35738;49.890;5.930;2023-01-15T06:14:15;94419.72;;;1.86;100.00
49841;BME280;35738;49.890;5.930;2023-01-15T06:16:42;94416.25;;;1.94;100.00
49841;BME280;35738;49.890;5.930;2023-01-15T06:19:10;94437.28;;;1.88;100.00
49841;BME280;35738;49.890;5.930;2023-01-15T06:21:37;94427.34;;;1.84;100.00
49841;BME280;35738;49.890;5.930;2023-01-15T06:24:04;94443.84;;;1.96;100.00
49841;BME280;35738;49.890;5.930;2023-01-15T06:26:31;94442.06;;;1.91;100.00
49841;BME280;35738;49.890;5.930;2023-01-15T06:28:58;94441.00;;;2.01;100.00
49841;BME280;35738;49.890;5.930;2023-01-15T06:31:25;94440.16;;;1.92;100.00
49841;BME280;35738;49.890;5.930;2023-01-15T06:33:54;94426.97;;;1.99;100.00
49841;BME280;35738;49.890;5.930;2023-01-15T06:36:23;94442.88;;;1.92;100.00
49841;BME280;35738;49.890;5.930;2023-01-15T06:38:50;94445.16;;;1.99;100.00
49841;BME280;35738;49.890;5.930;2023-01-15T06:41:22;94439.38;;;1.91;100.00
49841;BME280;35738;49.890;5.930;2023-01-15T06:44:12;94449.91;;;1.93;100.00
49841;BME280;35738;49.890;5.930;2023-01-15T06:46:57;94456.38;;;1.83;100.00
49841;BME280;35738;49.890;5.930;2023-01-15T06:49:42;94468.56;;;1.50;100.00
49841;BME280;35738;49.890;5.930;2023-01-15T06:52:09;94447.69;;;1.50;100.00
49841;BME280;35738;49.890;5.930;2023-01-15T06:54:36;94460.38;;;1.27;100.00
49841;BME280;35738;49.890;5.930;2023-01-15T06:57:02;94451.66;;;1.31;100.00
49841;BME280;35738;49.890;5.930;2023-01-15T06:59:29;94460.81;;;1.21;100.00
49841;BME280;35738;49.890;5.930;2023-01-15T07:01:57;94467.72;;;1.27;100.00
49841;BME280;35738;49.890;5.930;2023-01-15T07:04:23;94474.44;;;1.30;100.00
49841;BME280;35738;49.890;5.930;2023-01-15T07:06:50;94482.84;;;1.28;100.00
49841;BME280;35738;49.890;5.930;2023-01-15T07:09:17;94504.53;;;1.28;100.00
49841;BME280;35738;49.890;5.930;2023-01-15T07:11:43;94517.69;;;1.21;100.00
49841;BME280;35738;49.890;5.930;2023-01-15T07:14:23;94517.22;;;0.91;100.00
49841;BME280;35738;49.890;5.930;2023-01-15T07:16:51;94522.34;;;0.79;100.00
49841;BME280;35738;49.890;5.930;2023-01-15T07:19:18;94513.72;;;0.77;100.00
49841;BME280;35738;49.890;5.930;2023-01-15T07:21:45;94525.75;;;0.85;100.00
49841;BME280;35738;49.890;5.930;2023-01-15T07:24:13;94538.66;;;0.88;100.00
49841;BME280;35738;49.890;5.930;2023-01-15T07:26:40;94546.50;;;0.89;100.00
49841;BME280;35738;49.890;5.930;2023-01-15T07:29:07;94550.00;;;0.90;100.00
49841;BME280;35738;49.890;5.930;2023-01-15T07:31:34;94542.28;;;0.83;100.00
49841;BME280;35738;49.890;5.930;2023-01-15T07:34:01;94539.56;;;0.83;100.00
49841;BME280;35738;49.890;5.930;2023-01-15T07:36:28;94538.88;;;0.78;100.00
49841;BME280;35738;49.890;5.930;2023-01-15T07:38:55;94528.22;;;0.68;100.00
49841;BME280;35738;49.890;5.930;2023-01-15T07:41:22;94540.44;;;0.65;100.00
49841;BME280;35738;49.890;5.930;2023-01-15T07:44:09;94542.63;;;0.63;100.00
49841;BME280;35738;49.890;5.930;2023-01-15T07:46:54;94546.03;;;0.55;100.00
49841;BME280;35738;49.890;5.930;2023-01-15T07:49:43;94551.44;;;0.55;100.00
49841;BME280;35738;49.890;5.930;2023-01-15T07:52:20;94533.41;;;0.37;100.00
49841;BME280;35738;49.890;5.930;2023-01-15T07:54:48;94547.22;;;0.35;100.00
49841;BME280;35738;49.890;5.930;2023-01-15T07:57:20;94550.03;;;0.44;100.00
49841;BME280;35738;49.890;5.930;2023-01-15T07:59:48;94529.38;;;0.34;100.00
49841;BME280;35738;49.890;5.930;2023-01-15T08:02:15;94549.38;;;0.19;100.00
49841;BME280;35738;49.890;5.930;2023-01-15T08:04:42;94561.97;;;0.10;100.00
49841;BME280;35738;49.890;5.930;2023-01-15T08:07:09;94530.94;;;0.08;100.00
49841;BME280;35738;49.890;5.930;2023-01-15T08:09:36;94533.94;;;0.06;100.00
49841;BME280;35738;49.890;5.930;2023-01-15T08:12:03;94542.16;;;0.15;100.00
49841;BME280;35738;49.890;5.930;2023-01-15T08:14:49;94546.28;;;0.26;100.00
49841;BME280;35738;49.890;5.930;2023-01-15T08:17:36;94538.91;;;0.45;100.00
49841;BME280;35738;49.890;5.930;2023-01-15T08:20:04;94545.81;;;0.38;100.00
49841;BME280;35738;49.890;5.930;2023-01-15T08:22:31;94557.06;;;0.45;100.00
49841;BME280;35738;49.890;5.930;2023-01-15T08:24:58;94569.97;;;0.48;100.00
49841;BME280;35738;49.890;5.930;2023-01-15T08:27:25;94569.09;;;0.52;100.00
49841;BME280;35738;49.890;5.930;2023-01-15T08:29:52;94565.66;;;0.47;100.00
49841;BME280;35738;49.890;5.930;2023-01-15T08:32:18;94589.38;;;0.82;100.00
49841;BME280;35738;49.890;5.930;2023-01-15T08:34:45;94567.09;;;0.58;100.00
49841;BME280;35738;49.890;5.930;2023-01-15T08:37:11;94579.50;;;0.59;100.00
49841;BME280;35738;49.890;5.930;2023-01-15T08:39:38;94592.41;;;0.48;100.00
49841;BME280;35738;49.890;5.930;2023-01-15T08:42:05;94596.72;;;0.49;100.00
49841;BME280;35738;49.890;5.930;2023-01-15T08:44:32;94579.59;;;0.54;100.00
49841;BME280;35738;49.890;5.930;2023-01-15T08:46:58;94574.59;;;0.61;100.00
49841;BME280;35738;49.890;5.930;2023-01-15T08:49:25;94581.13;;;0.60;100.00
49841;BME280;35738;49.890;5.930;2023-01-15T08:51:52;94591.03;;;0.64;100.00
49841;BME280;35738;49.890;5.930;2023-01-15T08:54:20;94589.78;;;0.76;100.00
49841;BME280;35738;49.890;5.930;2023-01-15T08:56:47;94575.66;;;0.79;100.00
49841;BME280;35738;49.890;5.930;2023-01-15T08:59:15;94586.84;;;0.72;100.00
49841;BME280;35738;49.890;5.930;2023-01-15T09:01:42;94588.38;;;0.78;100.00
49841;BME280;35738;49.890;5.930;2023-01-15T09:04:18;94611.19;;;0.72;100.00
49841;BME280;35738;49.890;5.930;2023-01-15T09:06:46;94601.63;;;0.80;100.00
49841;BME280;35738;49.890;5.930;2023-01-15T09:09:13;94593.69;;;0.83;100.00
49841;BME280;35738;49.890;5.930;2023-01-15T09:11:41;94595.09;;;0.94;100.00
49841;BME280;35738;49.890;5.930;2023-01-15T09:14:12;94591.59;;;0.94;100.00
49841;BME280;35738;49.890;5.930;2023-01-15T09:16:59;94619.88;;;1.02;100.00
49841;BME280;35738;49.890;5.930;2023-01-15T09:19:26;94601.81;;;0.97;100.00
49841;BME280;35738;49.890;5.930;2023-01-15T09:21:52;94600.13;;;1.15;100.00
49841;BME280;35738;49.890;5.930;2023-01-15T09:24:19;94605.34;;;1.11;100.00
49841;BME280;35738;49.890;5.930;2023-01-15T09:26:46;94588.00;;;1.12;100.00
49841;BME280;35738;49.890;5.930;2023-01-15T09:29:13;94606.84;;;1.31;100.00
49841;BME280;35738;49.890;5.930;2023-01-15T09:31:39;94609.53;;;1.31;100.00
49841;BME280;35738;49.890;5.930;2023-01-15T09:34:06;94605.03;;;1.40;100.00
49841;BME280;35738;49.890;5.930;2023-01-15T09:36:34;94616.47;;;1.65;100.00
49841;BME280;35738;49.890;5.930;2023-01-15T09:39:02;94618.66;;;1.63;100.00
49841;BME280;35738;49.890;5.930;2023-01-15T09:41:50;94634.44;;;1.61;100.00
49841;BME280;35738;49.890;5.930;2023-01-15T09:45:36;94637.84;;;1.52;100.00
49841;BME280;35738;49.890;5.930;2023-01-15T09:48:21;94610.25;;;1.50;100.00
49841;BME280;35738;49.890;5.930;2023-01-15T09:56:15;94619.06;;;1.56;100.00
49841;BME280;35738;49.890;5.930;2023-01-15T09:58:45;94626.91;;;1.57;100.00
49841;BME280;35738;49.890;5.930;2023-01-15T10:01:23;94650.97;;;1.73;100.00
49841;BME280;35738;49.890;5.930;2023-01-15T10:06:28;94657.00;;;1.70;100.00
49841;BME280;35738;49.890;5.930;2023-01-15T10:09:08;94670.34;;;1.80;100.00
49841;BME280;35738;49.890;5.930;2023-01-15T10:11:51;94636.41;;;1.69;100.00
49841;BME280;35738;49.890;5.930;2023-01-15T10:17:31;94653.28;;;1.66;100.00
49841;BME280;35738;49.890;5.930;2023-01-15T10:20:05;94673.84;;;1.39;100.00
49841;BME280;35738;49.890;5.930;2023-01-15T10:22:47;94679.59;;;1.51;100.00
49841;BME280;35738;49.890;5.930;2023-01-15T10:25:24;94686.53;;;1.57;100.00
49841;BME280;35738;49.890;5.930;2023-01-15T10:27:51;94689.72;;;1.59;100.00
49841;BME280;35738;49.890;5.930;2023-01-15T10:30:39;94686.50;;;1.44;100.00
49841;BME280;35738;49.890;5.930;2023-01-15T10:33:24;94685.59;;;1.48;100.00
49841;BME280;35738;49.890;5.930;2023-01-15T10:36:10;94685.50;;;1.53;100.00
49841;BME280;35738;49.890;5.930;2023-01-15T10:41:26;94693.72;;;1.76;100.00
49841;BME280;35738;49.890;5.930;2023-01-15T10:44:04;94685.13;;;2.10;100.00
49841;BME280;35738;49.890;5.930;2023-01-15T10:46:36;94706.91;;;2.18;100.00
49841;BME280;35738;49.890;5.930;2023-01-15T10:49:14;94689.44;;;2.25;100.00
49841;BME280;35738;49.890;5.930;2023-01-15T10:51:45;94698.88;;;2.13;100.00
49841;BME280;35738;49.890;5.930;2023-01-15T10:54:35;94698.16;;;2.35;100.00
49841;BME280;35738;49.890;5.930;2023-01-15T10:57:24;94705.91;;;2.14;100.00
49841;BME280;35738;49.890;5.930;2023-01-15T10:59:58;94711.94;;;2.25;100.00
49841;BME280;35738;49.890;5.930;2023-01-15T11:05:50;94696.06;;;2.32;100.00
49841;BME280;35738;49.890;5.930;2023-01-15T11:08:23;94654.06;;;2.52;100.00
49841;BME280;35738;49.890;5.930;2023-01-15T11:13:53;94679.22;;;2.44;100.00
49841;BME280;35738;49.890;5.930;2023-01-15T11:16:40;94694.78;;;2.52;100.00
49841;BME280;35738;49.890;5.930;2023-01-15T11:19:30;94695.25;;;2.32;100.00
49841;BME280;35738;49.890;5.930;2023-01-15T11:22:18;94685.63;;;2.26;100.00
49841;BME280;35738;49.890;5.930;2023-01-15T11:25:05;94684.22;;;2.14;100.00
49841;BME280;35738;49.890;5.930;2023-01-15T11:27:34;94653.94;;;2.35;100.00
49841;BME280;35738;49.890;5.930;2023-01-15T11:30:06;94677.38;;;2.31;100.00
49841;BME280;35738;49.890;5.930;2023-01-15T11:32:36;94671.59;;;2.46;100.00
49841;BME280;35738;49.890;5.930;2023-01-15T11:35:15;94671.28;;;2.70;100.00
49841;BME280;35738;49.890;5.930;2023-01-15T11:37:42;94670.41;;;2.83;100.00
49841;BME280;35738;49.890;5.930;2023-01-15T11:40:19;94674.59;;;2.89;100.00
49841;BME280;35738;49.890;5.930;2023-01-15T11:42:50;94670.47;;;2.69;100.00
49841;BME280;35738;49.890;5.930;2023-01-15T11:45:51;94662.94;;;2.66;100.00
49841;BME280;35738;49.890;5.930;2023-01-15T11:48:47;94665.59;;;2.58;100.00
49841;BME280;35738;49.890;5.930;2023-01-15T11:51:45;94677.38;;;2.53;100.00
49841;BME280;35738;49.890;5.930;2023-01-15T11:54:14;94677.94;;;2.41;100.00
49841;BME280;35738;49.890;5.930;2023-01-15T11:56:44;94678.50;;;2.52;100.00
49841;BME280;35738;49.890;5.930;2023-01-15T11:59:13;94653.31;;;2.38;100.00
49841;BME280;35738;49.890;5.930;2023-01-15T12:01:53;94669.78;;;2.41;100.00
49841;BME280;35738;49.890;5.930;2023-01-15T12:04:36;94657.41;;;2.49;100.00
49841;BME280;35738;49.890;5.930;2023-01-15T12:07:05;94643.84;;;2.49;100.00
49841;BME280;35738;49.890;5.930;2023-01-15T12:15:40;94656.66;;;2.79;100.00
49841;BME280;35738;49.890;5.930;2023-01-15T12:26:36;94655.66;;;2.98;100.00
49841;BME280;35738;49.890;5.930;2023-01-15T12:29:20;94656.03;;;2.82;100.00
49841;BME280;35738;49.890;5.930;2023-01-15T12:31:54;94663.41;;;2.91;100.00
49841;BME280;35738;49.890;5.930;2023-01-15T12:34:40;94662.97;;;2.97;100.00
49841;BME280;35738;49.890;5.930;2023-01-15T12:37:24;94662.56;;;2.81;100.00
49841;BME280;35738;49.890;5.930;2023-01-15T12:42:44;94651.69;;;2.81;100.00
49841;BME280;35738;49.890;5.930;2023-01-15T12:45:36;94648.38;;;2.84;100.00
49841;BME280;35738;49.890;5.930;2023-01-15T12:50:56;94647.75;;;2.87;100.00
49841;BME280;35738;49.890;5.930;2023-01-15T12:53:41;94643.94;;;2.66;100.00
49841;BME280;35738;49.890;5.930;2023-01-15T12:56:35;94650.00;;;2.63;100.00
49841;BME280;35738;49.890;5.930;2023-01-15T12:59:15;94655.66;;;2.75;100.00
49841;BME280;35738;49.890;5.930;2023-01-15T13:04:50;94630.94;;;2.54;100.00
49841;BME280;35738;49.890;5.930;2023-01-15T13:07:26;94638.91;;;2.51;100.00
49841;BME280;35738;49.890;5.930;2023-01-15T13:10:05;94616.31;;;2.64;100.00
49841;BME280;35738;49.890;5.930;2023-01-15T13:12:35;94634.63;;;2.59;100.00
49841;BME280;35738;49.890;5.930;2023-01-15T13:15:03;94626.50;;;2.36;100.00
49841;BME280;35738;49.890;5.930;2023-01-15T13:18:24;94619.84;;;2.06;100.00
49841;BME280;35738;49.890;5.930;2023-01-15T13:23:22;94635.75;;;2.35;100.00
49841;BME280;35738;49.890;5.930;2023-01-15T13:26:10;94640.88;;;2.59;100.00
49841;BME280;35738;49.890;5.930;2023-01-15T13:36:49;94632.06;;;2.53;100.00
49841;BME280;35738;49.890;5.930;2023-01-15T13:39:21;94633.88;;;2.67;100.00
49841;BME280;35738;49.890;5.930;2023-01-15T13:41:51;94622.72;;;2.68;100.00
49841;BME280;35738;49.890;5.930;2023-01-15T13:44:44;94606.44;;;2.68;100.00
49841;BME280;35738;49.890;5.930;2023-01-15T13:47:17;94615.06;;;2.70;100.00
49841;BME280;35738;49.890;5.930;2023-01-15T13:49:54;94621.84;;;2.81;100.00
49841;BME280;35738;49.890;5.930;2023-01-15T13:52:30;94632.81;;;2.99;100.00
49841;BME280;35738;49.890;5.930;2023-01-15T13:57:37;94631.28;;;2.84;100.00
49841;BME280;35738;49.890;5.930;2023-01-15T14:00:27;94624.41;;;2.86;100.00
49841;BME280;35738;49.890;5.930;2023-01-15T14:02:56;94623.63;;;2.86;100.00
49841;BME280;35738;49.890;5.930;2023-01-15T14:05:31;94634.53;;;2.95;100.00
49841;BME280;35738;49.890;5.930;2023-01-15T14:08:00;94648.06;;;2.86;100.00
49841;BME280;35738;49.890;5.930;2023-01-15T14:13:22;94652.81;;;2.80;100.00
49841;BME280;35738;49.890;5.930;2023-01-15T14:21:43;94648.44;;;2.71;100.00
49841;BME280;35738;49.890;5.930;2023-01-15T14:33:32;94651.09;;;2.62;100.00
49841;BME280;35738;49.890;5.930;2023-01-15T14:36:10;94658.94;;;2.64;100.00
49841;BME280;35738;49.890;5.930;2023-01-15T14:38:47;94660.97;;;2.58;100.00
49841;BME280;35738;49.890;5.930;2023-01-15T14:41:15;94642.09;;;2.53;100.00
49841;BME280;35738;49.890;5.930;2023-01-15T14:43:51;94650.38;;;2.48;100.00
49841;BME280;35738;49.890;5.930;2023-01-15T14:46:32;94664.50;;;2.59;100.00
49841;BME280;35738;49.890;5.930;2023-01-15T14:49:00;94658.94;;;2.41;100.00
49841;BME280;35738;49.890;5.930;2023-01-15T14:54:02;94657.34;;;2.63;100.00
49841;BME280;35738;49.890;5.930;2023-01-15T14:56:35;94664.50;;;2.59;100.00
49841;BME280;35738;49.890;5.930;2023-01-15T14:59:15;94663.88;;;2.62;100.00
49841;BME280;35738;49.890;5.930;2023-01-15T15:01:59;94664.44;;;2.50;100.00
49841;BME280;35738;49.890;5.930;2023-01-15T15:04:47;94665.09;;;2.55;100.00
49841;BME280;35738;49.890;5.930;2023-01-15T15:07:22;94650.75;;;2.55;100.00
49841;BME280;35738;49.890;5.930;2023-01-15T15:09:55;94663.00;;;2.52;100.00
49841;BME280;35738;49.890;5.930;2023-01-15T15:23:38;94667.00;;;2.33;100.00